Latest Weather Observations for Lucas Heights

IDN60801

Issued at 1:02 am EDT Thursday 8 December 2016 (issued every 30 minutes, with the page automatically refreshed every 10 minutes)

About weather observations | Map of weather stations | Latest weather observations for NSW | Other Formats
Station Details ID: 066023 Name: LUCAS HEIGHTS AWS Lat: -34.05 Lon: 150.98 Height: 140.0 m
Data from the previous 72 hours. | See also: Recent months for locations in New South Wales
Date/Time
EDT
Temp
°C
App
Temp
°C
Dew
Point
°C
Rel
Hum
%
Delta-T
°C
Wind Press
QNH
hPa
Press
MSL
hPa
Rain since
9am
mm
Dir  Spd
km/h
Gust
km/h
Spd
kts
Gust
kts
08/12:45am 19.7 19.3 17.1 85 1.6 N 15 24 8 13 1013.1 - 0.0
08/12:30am 19.8 19.8 17.2 85 1.6 N 13 24 7 13 1013.3 - 0.0
08/12:15am 19.8 20.2 17.3 85 1.5 N 11 19 6 10 1013.5 - 0.0
08/12:00am 19.9 20.3 17.2 84 1.7 - 11 20 6 11 1013.5 - 0.0
 
Date/Time
EDT
Temp
°C
App
Temp
°C
Dew
Point
°C
Rel
Hum
%
Delta-T
°C
Wind Press
QNH
hPa
Press
MSL
hPa
Rain since
9am
mm
Dir  Spd
km/h
Gust
km/h
Spd
kts
Gust
kts
07/11:45pm 20.0 19.2 17.2 84 1.7 NNE 17 26 9 14 1013.7 - 0.0
07/11:30pm 20.0 19.2 17.2 84 1.7 N 17 26 9 14 1013.8 - 0.0
07/11:15pm 20.0 19.2 17.1 83 1.8 NNE 17 22 9 12 1013.9 - 0.0
07/11:00pm 20.0 19.6 17.1 83 1.8 NNE 15 20 8 11 1014.1 - 0.0
07/10:45pm 20.1 19.7 17.1 83 1.8 NNE 15 20 8 11 1014.1 - 0.0
07/10:30pm 20.1 19.7 17.1 83 1.8 NNE 15 20 8 11 1014.1 - 0.0
07/10:15pm 20.1 20.1 17.2 83 1.8 NNE 13 20 7 11 1014.1 - 0.0
07/10:00pm 20.1 19.7 17.1 83 1.8 NNE 15 20 8 11 1014.1 - 0.0
07/09:45pm 20.1 20.4 17.0 82 1.9 NNE 11 20 6 11 1014.0 - 0.0
07/09:30pm 20.1 20.0 16.9 82 2.0 NNE 13 22 7 12 1014.0 - 0.0
07/09:15pm 20.2 19.7 16.9 81 2.0 NNE 15 26 8 14 1014.0 - 0.0
07/09:00pm 20.3 20.6 17.0 81 2.0 NE 11 19 6 10 1013.9 - 0.0
07/08:45pm 20.4 19.9 16.9 80 2.1 NE 15 22 8 12 1013.9 - 0.0
07/08:30pm 20.4 19.9 16.9 80 2.1 NNE 15 24 8 13 1013.9 - 0.0
07/08:15pm 20.4 19.1 16.8 80 2.2 NNE 19 26 10 14 1013.8 - 0.0
07/08:00pm 20.6 19.3 16.8 79 2.3 NE 19 30 10 16 1013.7 - 0.0
07/07:45pm 20.7 19.3 16.9 79 2.3 NE 20 30 11 16 1013.6 - 0.0
07/07:30pm 20.9 19.5 16.9 78 2.4 NE 20 30 11 16 1013.5 - 0.0
07/07:15pm 21.2 20.7 16.9 76 2.6 NE 15 26 8 14 1013.5 - 0.0
07/07:00pm 21.4 19.9 16.8 75 2.8 NE 20 32 11 17 1013.4 - 0.0
07/06:45pm 21.5 20.1 16.9 75 2.8 NE 20 26 11 14 1013.4 - 0.0
07/06:30pm 22.0 20.2 16.9 73 3.1 ENE 22 32 12 17 1013.2 - 0.0
07/06:15pm 21.9 20.5 16.9 73 3.1 NE 20 30 11 16 1013.2 - 0.0
07/06:00pm 22.3 21.0 16.9 71 3.3 ENE 19 30 10 16 1013.1 - 0.0
07/05:45pm 22.7 21.3 17.1 70 3.5 ENE 20 28 11 15 1013.1 - 0.0
07/05:30pm 22.8 21.7 17.2 70 3.5 ENE 19 30 10 16 1013.0 - 0.0
07/05:15pm 22.3 20.9 16.9 71 3.3 ENE 20 30 11 16 1013.2 - 0.0
07/05:00pm 22.4 21.2 17.1 72 3.3 E 19 26 10 14 1013.3 - 0.0
07/04:45pm 22.8 22.0 17.2 70 3.5 ENE 17 26 9 14 1013.4 - 0.0
07/04:30pm 23.1 22.8 17.4 70 3.5 ENE 15 24 8 13 1013.5 - 0.0
07/04:15pm 22.7 21.8 16.9 70 3.6 E 17 28 9 15 1013.4 - 0.0
07/04:00pm 23.0 21.9 17.2 70 3.6 ENE 19 26 10 14 1013.5 - 0.0
07/03:45pm 22.9 21.8 17.2 70 3.5 ENE 19 35 10 19 1013.5 - 0.0
07/03:30pm 23.2 22.5 17.3 69 3.7 E 17 26 9 14 1013.7 - 0.0
07/03:15pm 23.2 22.4 17.1 68 3.8 E 17 30 9 16 1013.9 - 0.0
07/03:00pm 23.4 22.2 17.1 67 3.9 ENE 19 30 10 16 1014.0 - 0.0
07/02:45pm 23.9 23.7 17.5 67 4.0 ENE 15 24 8 13 1014.2 - 0.0
07/02:30pm 23.7 23.5 17.6 68 3.8 E 15 24 8 13 1014.3 - 0.0
07/02:15pm 23.1 22.5 17.5 70 3.5 E 17 26 9 14 1014.4 - 0.0
07/02:00pm 22.9 22.2 17.4 71 3.4 E 17 30 9 16 1014.4 - 0.0
07/01:45pm 22.6 21.9 17.3 72 3.3 E 17 24 9 13 1014.7 - 0.0
07/01:30pm 22.4 22.0 17.2 72 3.2 E 15 24 8 13 1014.7 - 0.0
07/01:15pm 22.7 22.0 17.4 72 3.3 E 17 24 9 13 1014.8 - 0.0
07/01:00pm 21.8 21.4 17.1 74 2.9 E 15 22 8 12 1015.0 - 0.0
07/12:45pm 21.9 21.0 16.9 73 3.1 ESE 17 24 9 13 1015.0 - 0.0
07/12:30pm 22.9 23.1 17.7 72 3.2 E 13 19 7 10 1015.1 - 0.0
07/12:15pm 21.7 22.0 16.9 74 2.9 E 11 19 6 10 1015.4 - 0.0
07/12:00pm 21.9 22.6 17.1 74 3.0 E 9 17 5 9 1015.5 - 0.0
07/11:45am 22.6 22.6 17.3 72 3.3 ENE 13 19 7 10 1015.4 - 0.0
07/11:30am 22.5 22.6 17.4 73 3.2 E 13 19 7 10 1015.5 - 0.0
07/11:15am 22.3 22.6 17.0 72 3.3 SE 11 19 6 10 1015.5 - 0.0
07/11:00am 22.6 22.9 17.0 70 3.5 ESE 11 19 6 10 1015.4 - 0.0
07/10:45am 22.6 23.2 17.6 73 3.1 ESE 11 17 6 9 1015.4 - 0.0
07/10:30am 21.0 21.4 17.3 79 2.3 ESE 11 19 6 10 1015.4 - 0.0
07/10:15am 20.9 20.9 17.1 79 2.3 SE 13 22 7 12 1015.2 - 0.0
07/10:00am 21.5 22.1 17.6 78 2.4 ESE 11 17 6 9 1015.1 - 0.0
07/09:45am 21.0 21.1 17.4 80 2.2 SE 13 19 7 10 1015.1 - 0.0
07/09:30am 21.1 21.1 17.1 78 2.5 ESE 13 24 7 13 1014.9 - 0.0
07/09:15am 21.2 21.8 17.6 80 2.2 ESE 11 17 6 9 1014.8 - 0.0
07/09:00am 20.9 21.9 17.8 82 1.9 ESE 9 17 5 9 1014.9 - 8.6
07/08:45am 20.3 20.6 17.9 86 1.5 ESE 13 17 7 9 1014.9 - 8.6
07/08:30am 19.4 20.1 17.9 91 0.9 SE 11 17 6 9 1014.9 - 8.6
07/08:15am 19.1 19.7 17.8 92 0.8 SE 11 17 6 9 1014.8 - 8.6
07/08:00am 19.4 20.6 18.2 93 0.7 SE 9 15 5 8 1014.6 - 8.6
07/07:45am 19.1 20.2 17.9 93 0.7 SE 9 17 5 9 1014.5 - 8.6
07/07:30am 18.9 20.3 17.7 93 0.7 SSE 7 11 4 6 1014.5 - 8.6
07/07:15am 18.5 19.7 17.3 93 0.7 SSE 7 13 4 7 1014.2 - 8.6
07/07:00am 18.3 19.4 17.1 93 0.7 SSE 7 11 4 6 1014.2 - 8.6
07/06:45am 18.0 18.6 16.8 93 0.7 SSE 9 13 5 7 1014.0 - 8.6
07/06:30am 18.0 18.2 16.8 93 0.7 SSE 11 17 6 9 1014.0 - 8.6
07/06:15am 18.0 19.0 16.8 93 0.7 S 7 11 4 6 1013.7 - 8.6
07/06:00am 17.9 19.0 16.7 93 0.7 SSE 6 9 3 5 1013.3 - 8.6
07/05:45am 17.9 19.4 16.7 93 0.7 SSE 4 7 2 4 1013.1 - 8.6
07/05:30am 17.9 19.4 16.7 93 0.7 SSE 4 6 2 3 1013.0 - 8.5
07/05:15am 17.8 18.9 16.6 93 0.7 S 6 7 3 4 1012.8 - 8.5
07/05:00am 17.8 18.9 16.6 93 0.7 SSE 6 7 3 4 1012.6 - 8.5
07/04:45am 17.7 18.6 16.5 93 0.7 S 7 9 4 5 1012.5 - 8.5
07/04:30am 17.6 18.0 16.4 93 0.7 S 9 13 5 7 1012.5 - 8.3
07/04:15am 17.6 18.0 16.4 93 0.7 SSW 9 11 5 6 1012.4 - 8.1
07/04:00am 17.7 18.6 16.5 93 0.7 SW 7 9 4 5 1012.4 - 8.1
07/03:45am 18.0 19.2 16.8 93 0.7 SW 6 7 3 4 1012.4 - 7.9
07/03:30am 18.1 19.7 16.9 93 0.7 SSW 4 6 2 3 1012.5 - 7.9
07/03:15am 18.1 19.3 16.9 93 0.7 S 6 7 3 4 1012.6 - 7.7
07/03:00am 18.2 19.3 17.0 93 0.7 S 7 11 4 6 1013.0 - 7.6
07/02:45am 18.2 19.3 17.1 93 0.7 SSW 7 11 4 6 1013.3 - 7.4
07/02:30am 18.3 19.4 17.1 93 0.7 S 7 15 4 8 1013.3 - 7.0
07/02:15am 18.3 18.3 17.1 93 0.7 S 13 17 7 9 1013.6 - 6.8
07/02:00am 18.5 17.8 17.3 93 0.7 S 17 22 9 12 1013.7 - 6.7
07/01:45am 18.6 19.1 17.4 93 0.7 S 11 19 6 10 1013.4 - 6.5
07/01:30am 18.7 19.6 17.5 93 0.7 S 9 15 5 8 1013.0 - 6.3
07/01:15am 18.6 18.6 17.2 91 0.9 S 13 20 7 11 1012.8 - 6.3
07/01:00am 18.5 18.9 17.3 93 0.7 S 11 17 6 9 1012.7 - 6.3
07/12:45am 18.6 19.0 17.3 92 0.8 SSE 11 15 6 8 1012.6 - 6.3
07/12:30am 18.5 19.2 17.0 91 0.9 S 9 15 5 8 1012.7 - 6.3
07/12:15am 18.6 18.7 16.6 88 1.2 SSE 11 15 6 8 1012.7 - 6.3
07/12:00am 19.0 18.1 16.9 88 1.3 S 17 30 9 16 1012.6 - 6.3
 
Date/Time
EDT
Temp
°C
App
Temp
°C
Dew
Point
°C
Rel
Hum
%
Delta-T
°C
Wind Press
QNH
hPa
Press
MSL
hPa
Rain since
9am
mm
Dir  Spd
km/h
Gust
km/h
Spd
kts
Gust
kts
06/11:45pm 18.8 18.6 17.6 93 0.7 S 15 20 8 11 1012.5 - 6.3
06/11:30pm 18.7 18.5 17.5 93 0.7 S 15 22 8 12 1012.5 - 6.3
06/11:15pm 19.1 19.4 17.9 93 0.7 S 13 17 7 9 1012.5 - 6.3
06/11:00pm 19.9 20.9 18.7 93 0.8 S 11 17 6 9 1012.3 - 6.3
06/10:45pm 21.1 22.7 19.9 93 0.8 S 11 17 6 9 1012.3 - 6.3
06/10:30pm 21.4 22.7 20.1 92 0.8 SW 13 17 7 9 1012.1 - 6.3
06/10:15pm 21.4 22.7 20.2 93 0.8 SW 13 17 7 9 1011.9 - 6.1
06/10:00pm 21.6 22.6 20.3 92 0.8 WSW 15 17 8 9 1011.7 - 6.1
06/09:45pm 21.6 23.4 20.4 93 0.8 WSW 11 15 6 8 1011.7 - 6.1
06/09:30pm 21.7 23.6 20.5 93 0.8 W 11 15 6 8 1011.5 - 5.9
06/09:15pm 21.8 23.3 20.6 93 0.8 W 13 19 7 10 1011.5 - 5.9
06/09:00pm 21.8 23.3 20.6 93 0.8 W 13 17 7 9 1011.3 - 5.9
06/08:45pm 21.8 23.0 20.6 93 0.8 WNW 15 20 8 11 1010.9 - 5.8
06/08:30pm 21.8 22.6 20.6 93 0.8 WNW 17 20 9 11 1010.7 - 5.8
06/08:15pm 21.7 22.4 20.5 93 0.8 NW 17 19 9 10 1010.5 - 5.6
06/08:00pm 21.7 23.2 20.5 93 0.8 NW 13 15 7 8 1010.4 - 5.6
06/07:45pm 21.7 23.9 20.5 93 0.8 NW 9 11 5 6 1010.4 - 5.6
06/07:30pm 21.7 24.5 20.5 93 0.8 NW 6 9 3 5 1010.5 - 5.6
06/07:15pm 21.8 24.5 20.6 93 0.8 NNW 7 11 4 6 1010.1 - 5.6
06/07:00pm 21.8 25.0 20.6 93 0.8 NNW 4 6 2 3 1009.9 - 5.6
06/06:45pm 21.8 25.0 20.6 93 0.8 N 4 6 2 3 1009.7 - 5.6
06/06:30pm 21.8 25.0 20.6 93 0.8 NNW 4 6 2 3 1009.6 - 5.6
06/06:15pm 21.7 24.9 20.5 93 0.8 WNW 4 7 2 4 1009.7 - 5.6
06/06:00pm 21.7 25.3 20.5 93 0.8 W 2 6 1 3 1009.7 - 5.6
06/05:45pm 21.6 25.1 20.4 93 0.8 S 2 4 1 2 1009.8 - 5.6
06/05:30pm 21.7 24.9 20.5 93 0.8 SSW 4 6 2 3 1009.8 - 5.6
06/05:15pm 21.6 24.8 20.4 93 0.8 W 4 7 2 4 1009.9 - 5.6
06/05:00pm 21.5 24.0 20.2 92 0.8 W 7 11 4 6 1010.0 - 5.4
06/04:45pm 21.5 24.2 20.2 92 0.8 W 6 11 3 6 1010.3 - 5.4
06/04:30pm 21.3 23.7 20.1 93 0.8 W 7 11 4 6 1010.3 - 5.2
06/04:15pm 21.3 23.7 20.0 92 0.8 W 7 11 4 6 1010.2 - 5.0
06/04:00pm 21.2 24.2 20.0 93 0.8 W 4 11 2 6 1010.2 - 5.0
06/03:45pm 21.1 24.0 19.9 93 0.8 WNW 4 6 2 3 1010.3 - 4.9
06/03:30pm 21.1 24.0 19.9 93 0.8 WNW 4 7 2 4 1010.4 - 4.7
06/03:15pm 21.0 23.9 19.8 93 0.8 NW 4 7 2 4 1010.5 - 4.5
06/03:00pm 20.8 23.6 19.6 93 0.8 N 4 9 2 5 1010.3 - 4.5
06/02:45pm 20.9 23.1 19.6 92 0.8 N 7 11 4 6 1010.4 - 4.5
06/02:30pm 20.8 23.0 19.6 93 0.8 N 7 11 4 6 1010.6 - 4.3
06/02:15pm 20.8 23.0 19.6 93 0.8 NNE 7 9 4 5 1010.9 - 4.3
06/02:00pm 20.9 23.2 19.5 92 0.9 N 6 11 3 6 1011.0 - 3.6
06/01:45pm 21.1 23.3 19.5 90 1.0 NE 7 11 4 6 1010.9 - 3.2
06/01:30pm 21.6 23.7 19.4 87 1.4 NE 7 9 4 5 1011.0 - 2.7
06/01:15pm 22.6 25.0 19.6 83 1.9 NE 6 11 3 6 1011.0 - 0.4
06/01:00pm 22.8 25.0 19.6 82 2.1 N 7 11 4 6 1010.8 - 0.0
06/12:45pm 23.0 25.4 19.6 81 2.2 N 6 13 3 7 1010.8 - 0.0
06/12:30pm 23.2 25.7 19.9 82 2.1 NNE 6 9 3 5 1011.0 - 0.0
06/12:15pm 22.9 25.3 19.6 81 2.1 ENE 6 7 3 4 1010.8 - 0.0
06/12:00pm 22.8 25.0 19.5 81 2.1 E 7 11 4 6 1010.7 - 0.0
06/11:45am 23.1 25.4 19.9 82 2.1 ENE 7 11 4 6 1010.8 - 0.0
06/11:30am 22.7 24.9 19.6 82 2.0 ENE 7 11 4 6 1011.3 - 0.0
06/11:15am 22.6 24.8 19.5 82 2.0 NE 7 11 4 6 1011.6 - 0.0
06/11:00am 22.7 25.4 19.4 81 2.1 ENE 4 7 2 4 1011.7 - 0.0
06/10:45am 22.9 25.6 19.5 81 2.2 ENE 4 7 2 4 1011.6 - 0.0
06/10:30am 22.9 26.0 19.5 81 2.2 NE 2 4 1 2 1011.6 - 0.0
06/10:15am 22.9 25.6 19.5 81 2.2 E 4 7 2 4 1011.4 - 0.0
06/10:00am 22.8 25.2 19.6 82 2.1 ESE 6 11 3 6 1011.5 - 0.0
06/09:45am 22.0 24.6 19.3 85 1.7 ESE 4 7 2 4 1011.4 - 0.0
06/09:30am 21.6 24.1 19.1 86 1.6 SE 4 11 2 6 1011.6 - 0.0
06/09:15am 21.2 23.8 19.2 88 1.3 S 4 7 2 4 1011.9 - 0.0
06/09:00am 20.7 23.1 18.9 89 1.1 S 4 7 2 4 1012.2 - 0.2
06/08:45am 20.3 22.1 18.8 91 0.9 SSW 7 11 4 6 1012.1 - 0.2
06/08:30am 20.0 21.7 18.6 92 0.9 SSW 7 11 4 6 1012.0 - 0.0
06/08:15am 19.8 21.5 18.4 92 0.9 SSW 7 13 4 7 1011.9 - 0.0
06/08:00am 19.7 20.9 18.3 92 0.9 SSW 9 15 5 8 1011.8 - 0.0
06/07:45am 19.7 20.9 18.3 92 0.9 S 9 13 5 7 1011.8 - 0.0
06/07:30am 19.6 20.4 18.2 92 0.9 S 11 17 6 9 1011.7 - 0.0
06/07:15am 19.5 19.9 18.1 92 0.9 S 13 17 7 9 1011.4 - 0.0
06/07:00am 19.5 20.6 18.1 92 0.9 S 9 20 5 11 1011.1 - 0.0
06/06:45am 19.4 19.7 18.0 92 0.9 SSE 13 17 7 9 1010.8 - 0.0
06/06:30am 19.4 19.3 17.9 91 0.9 SSE 15 20 8 11 1010.7 - 0.0
06/06:15am 19.4 19.3 17.8 90 1.0 SSE 15 22 8 12 1010.8 - 0.0
06/06:00am 19.4 19.7 17.8 90 1.0 SSE 13 19 7 10 1010.9 - 0.0
06/05:45am 19.5 20.1 17.7 89 1.1 SSE 11 19 6 10 1011.1 - 0.0
06/05:30am 19.7 21.0 17.6 88 1.3 S 7 15 4 8 1011.2 - 0.0
06/05:15am 19.7 21.0 17.6 88 1.3 SSE 7 13 4 7 1011.3 - 0.0
06/05:00am 19.6 20.5 17.6 88 1.2 SSE 9 15 5 8 1011.1 - 0.0
06/04:45am 19.6 20.5 17.6 88 1.2 SSE 9 11 5 6 1011.1 - 0.0
06/04:30am 19.5 21.0 17.6 89 1.2 SSE 6 7 3 4 1011.0 - 0.0
06/04:15am 19.3 20.7 17.3 88 1.2 SSE 6 9 3 5 1010.9 - 0.0
06/04:00am 19.5 20.9 17.3 87 1.3 SSE 6 7 3 4 1010.9 - 0.0
06/03:45am 19.6 20.8 17.4 87 1.4 SSW 7 9 4 5 1011.4 - 0.0
06/03:30am 19.5 20.9 17.4 88 1.3 SSW 6 9 3 5 1011.4 - 0.0
06/03:15am 19.4 20.6 17.3 88 1.3 SSW 7 11 4 6 1011.6 - 0.0
06/03:00am 19.4 20.2 17.2 87 1.3 SSW 9 11 5 6 1011.8 - 0.0
06/02:45am 19.4 20.5 17.2 87 1.3 SSW 7 9 4 5 1011.8 - 0.0
06/02:30am 19.3 21.0 17.2 88 1.3 SSW 4 9 2 5 1011.8 - 0.0
06/02:15am 19.2 20.5 17.0 87 1.3 S 6 9 3 5 1012.0 - 0.0
06/02:00am 19.2 20.2 16.9 86 1.4 S 7 11 4 6 1012.2 - 0.0
06/01:45am 19.2 20.4 16.9 86 1.4 SSW 6 11 3 6 1012.3 - 0.0
06/01:30am 19.1 20.1 16.8 86 1.4 SSE 7 13 4 7 1012.3 - 0.0
06/01:15am 18.8 19.3 16.5 86 1.4 S 9 17 5 9 1012.4 - 0.0
06/01:00am 18.8 18.6 16.6 87 1.3 SSE 13 19 7 10 1012.6 - 0.0
06/12:45am 18.9 18.6 16.5 86 1.4 SSE 13 20 7 11 1012.6 - 0.0
06/12:30am 19.1 17.7 16.5 85 1.6 SSE 19 30 10 16 1012.7 - 0.0
06/12:15am 19.5 17.6 16.7 84 1.7 SSE 22 35 12 19 1013.0 - 0.0
06/12:00am 19.7 17.9 16.9 84 1.7 SSE 22 35 12 19 1013.2 - 0.0
 
Date/Time
EDT
Temp
°C
App
Temp
°C
Dew
Point
°C
Rel
Hum
%
Delta-T
°C
Wind Press
QNH
hPa
Press
MSL
hPa
Rain since
9am
mm
Dir  Spd
km/h
Gust
km/h
Spd
kts
Gust
kts
05/11:45pm 19.6 17.4 17.0 85 1.6 SSE 24 41 13 22 1013.1 - 0.0
05/11:30pm 19.7 16.1 17.2 85 1.5 SSE 32 48 17 26 1012.8 - 0.0
05/11:15pm 19.6 16.9 17.6 88 1.2 SSE 28 46 15 25 1012.8 - 0.0
05/11:00pm 19.8 15.9 17.8 88 1.2 SSE 35 56 19 30 1012.5 - 0.0
05/10:45pm 20.0 15.8 18.0 88 1.2 SSE 37 59 20 32 1012.4 - 0.0
05/10:30pm 20.2 16.5 18.4 89 1.1 SSE 35 59 19 32 1012.4 - 0.0
05/10:15pm 20.5 18.0 18.9 90 1.0 SSE 30 44 16 24 1012.3 - 0.0
05/10:00pm 20.8 18.9 19.3 91 1.0 SSE 28 43 15 23 1012.2 - 0.0
05/09:45pm 21.2 19.1 19.7 91 1.0 SSE 30 44 16 24 1011.8 - 0.0
05/09:30pm 21.8 21.8 20.1 90 1.1 SSE 20 35 11 19 1011.5 - 0.0
05/09:15pm 22.6 21.8 20.8 89 1.2 SSE 26 39 14 21 1011.2 - 0.0
05/09:00pm 22.6 25.0 20.9 90 1.1 S 9 32 5 17 1010.6 - 0.0
05/08:45pm 22.8 26.1 20.8 88 1.3 S 4 7 2 4 1010.2 - 0.0
05/08:30pm 23.3 26.7 21.0 87 1.5 NE 4 7 2 4 1009.7 - 0.0
05/08:15pm 23.4 25.9 21.0 86 1.6 N 9 17 5 9 1009.5 - 0.0
05/08:00pm 23.2 25.3 20.9 87 1.5 NNE 11 17 6 9 1009.2 - 0.0
05/07:45pm 23.1 26.4 20.8 87 1.5 ENE 4 9 2 5 1008.9 - 0.0
05/07:30pm 23.2 25.8 20.5 85 1.8 NNE 7 13 4 7 1008.7 - 0.0
05/07:15pm 23.4 26.0 20.4 83 2.0 N 7 11 4 6 1008.6 - 0.0
05/07:00pm 23.7 26.1 20.1 80 2.3 NNE 7 15 4 8 1008.1 - 0.0
05/06:45pm 23.8 26.2 20.0 79 2.5 NE 7 11 4 6 1007.6 - 0.0
05/06:30pm 23.8 25.5 20.1 80 2.4 ENE 11 19 6 10 1007.4 - 0.0
05/06:15pm 23.3 24.7 20.3 83 2.0 E 13 20 7 11 1007.3 - 0.0
05/06:00pm 23.5 25.6 20.2 82 2.1 E 9 11 5 6 1007.3 - 0.0
05/05:45pm 23.4 24.7 20.2 82 2.1 E 13 22 7 12 1007.7 - 0.0
05/05:30pm 23.3 23.5 20.6 85 1.8 SE 20 32 11 17 1008.3 - 0.0
05/05:15pm 23.9 25.2 21.6 87 1.5 S 17 43 9 23 1008.7 - 0.0
05/05:00pm 24.5 25.2 22.2 87 1.5 WNW 22 48 12 26 1007.7 - 0.0
05/04:45pm 25.7 29.9 23.5 88 1.5 WNW 7 15 4 8 1006.6 - 0.0
05/04:30pm 26.1 30.3 23.4 85 1.9 NNW 7 20 4 11 1006.7 - 0.0
05/04:15pm 26.4 30.8 23.5 84 2.0 E 6 15 3 8 1006.2 - 0.0
05/04:00pm 26.7 30.1 23.3 81 2.3 ENE 11 20 6 11 1005.8 - 0.0
05/03:45pm 26.4 30.6 23.4 83 2.1 ENE 7 15 4 8 1005.9 - 0.0
05/03:30pm 25.7 29.3 22.4 82 2.2 SSE 7 13 4 7 1006.4 - 0.0
05/03:15pm 27.9 31.3 22.7 73 3.5 WSW 9 24 5 13 1006.7 - 0.0
05/03:00pm 29.8 34.1 22.7 65 4.9 ENE 4 7 2 4 1006.1 - 0.0
05/02:45pm 30.3 34.2 23.0 65 5.0 NNE 7 15 4 8 1006.1 - 0.0
05/02:30pm 30.3 33.9 22.4 62 5.4 N 7 11 4 6 1006.2 - 0.0
05/02:15pm 31.4 35.1 22.2 58 6.3 NE 6 9 3 5 1006.3 - 0.0
05/02:00pm 31.4 35.4 22.1 57 6.3 ENE 4 7 2 4 1006.6 - 0.0
05/01:45pm 31.6 35.9 21.9 56 6.6 SW 2 4 1 2 1006.8 - 0.0
05/01:30pm 31.3 35.3 22.0 57 6.3 WSW 4 7 2 4 1007.0 - 0.0
05/01:15pm 30.9 34.8 21.9 58 6.1 NW 4 9 2 5 1007.0 - 0.0
05/01:00pm 30.6 34.2 22.0 60 5.8 NNW 6 9 3 5 1007.1 - 0.0
05/12:45pm 30.0 33.3 21.8 61 5.6 NW 7 13 4 7 1007.1 - 0.0
05/12:30pm 29.8 33.0 21.7 61 5.5 NW 7 17 4 9 1007.2 - 0.0
05/12:15pm 28.9 32.4 22.1 66 4.6 WNW 7 15 4 8 1007.4 - 0.0
05/12:00pm 27.9 31.6 22.3 71 3.8 NW 6 13 3 7 1007.6 - 0.0
05/11:45am 27.1 30.4 21.8 73 3.6 NNW 7 11 4 6 1007.8 - 0.0
05/11:30am 27.1 30.5 22.0 73 3.4 NW 7 13 4 7 1008.1 - 0.0
05/11:15am 26.5 29.9 22.0 76 3.0 NNW 7 13 4 7 1008.3 - 0.0
05/11:00am 25.8 28.2 21.6 77 2.8 NNW 11 17 6 9 1008.5 - 0.0
05/10:45am 25.4 28.2 21.6 79 2.5 NNW 9 17 5 9 1008.5 - 0.0
05/10:30am 25.5 28.4 21.8 80 2.5 NNW 9 15 5 8 1008.7 - 0.0
05/10:15am 25.3 27.8 21.8 81 2.3 NW 11 17 6 9 1008.9 - 0.0
05/10:00am 25.3 27.9 21.9 81 2.3 NNW 11 17 6 9 1009.0 - 0.0
05/09:45am 25.2 27.4 21.9 82 2.2 NW 13 20 7 11 1009.1 - 0.0
05/09:30am 24.6 26.8 21.9 85 1.8 NNW 13 22 7 12 1009.2 - 0.0
05/09:15am 24.2 27.3 22.2 88 1.3 NW 9 19 5 10 1009.2 - 0.0
05/09:00am 23.1 25.5 21.6 91 1.0 NW 11 17 6 9 1009.4 - 0.0
05/08:45am 22.6 24.9 21.3 92 0.9 NW 11 17 6 9 1009.4 - 0.0
05/08:30am 22.4 24.5 20.9 91 1.0 NW 11 17 6 9 1009.3 - 0.0
05/08:15am 22.7 24.7 20.8 89 1.2 N 11 20 6 11 1009.1 - 0.0
05/08:00am 22.7 25.5 20.9 89 1.2 ENE 7 15 4 8 1008.7 - 0.0
05/07:45am 22.5 24.5 20.8 90 1.1 ESE 11 17 6 9 1008.8 - 0.0
05/07:30am 21.9 23.4 20.6 92 0.8 SE 13 22 7 12 1008.9 - 0.0
05/07:15am 21.3 22.2 20.0 92 0.8 ESE 15 24 8 13 1009.1 - 0.0
05/07:00am 20.8 21.1 19.6 93 0.8 E 17 22 9 12 1009.6 - 0.0
05/06:45am 20.8 22.2 19.6 93 0.8 ESE 11 15 6 8 1010.4 - 0.0
05/06:30am 20.9 23.3 19.7 93 0.8 E 6 11 3 6 1011.1 - 0.0
05/06:15am 21.0 23.4 19.6 92 0.9 NW 6 13 3 7 1011.7 - 0.0
05/06:00am 21.5 21.6 19.9 91 1.0 W 19 24 10 13 1012.2 - 0.0
05/05:45am 21.5 23.8 19.9 91 1.0 SSW 7 17 4 9 1011.3 - 0.0
05/05:30am 21.3 22.5 19.8 91 1.0 SE 13 20 7 11 1009.9 - 0.0
05/05:15am 21.3 22.1 19.8 91 1.0 SE 15 24 8 13 1009.9 - 0.0
05/05:00am 21.3 22.5 19.8 91 1.0 SSE 13 17 7 9 1009.7 - 0.0
05/04:45am 21.0 21.7 19.7 92 0.8 S 15 20 8 11 1009.7 - 0.0
05/04:30am 20.9 22.3 19.5 92 0.9 SSE 11 17 6 9 1008.8 - 0.0
05/04:15am 21.0 23.2 19.7 92 0.8 SE 7 11 4 6 1008.6 - 0.0
05/04:00am 20.9 22.7 19.6 92 0.8 ESE 9 13 5 7 1008.4 - 0.0
05/03:45am 20.7 22.8 19.4 92 0.8 SSE 7 9 4 5 1008.6 - 0.0
05/03:30am 20.8 22.9 19.4 92 0.9 SSE 7 9 4 5 1008.5 - 0.0
05/03:15am 20.9 23.1 19.5 92 0.9 SSE 7 11 4 6 1008.7 - 0.0
05/03:00am 20.9 24.0 19.4 91 1.0 S 2 4 1 2 1009.0 - 0.0
05/02:45am 20.9 24.0 19.4 91 1.0 ESE 2 4 1 2 1008.9 - 0.0
05/02:30am 21.0 23.7 19.5 91 1.0 E 4 4 2 2 1008.9 - 0.0
05/02:15am 20.9 24.0 19.5 92 0.9 ENE 2 4 1 2 1009.3 - 0.0
05/02:00am 21.0 24.1 19.5 91 1.0 ENE 2 4 1 2 1009.6 - 0.0
05/01:45am 20.9 24.0 19.4 91 1.0 NE 2 4 1 2 1009.8 - 0.0
05/01:30am 21.0 23.7 19.4 90 1.0 NE 4 6 2 3 1010.1 - 0.0
05/01:15am 20.9 23.1 19.2 90 1.1 N 6 9 3 5 1010.3 - 0.0

Other Formats:

Comma delimited format used in spreadsheet applications
http://www.bom.gov.au/fwo/IDN60801/IDN60801.95757.axf

JavaScript Object Notation format (JSON) in row-major order
http://www.bom.gov.au/fwo/IDN60801/IDN60801.95757.json